<?xml version="1.0" encoding="UTF-8" standalone="no" ?>
<gpx xmlns="http://www.topografix.com/GPX/1/1" xmlns:xsi="http://www.w3.org/2001/XMLSchema-instance" xsi:schemaLocation="http://www.topografix.com/GPX/1/1 http://www.topografix.com/GPX/1/1/gpx.xsd" version="1.1" creator="VisuGPX - https://www.visugpx.com">
  <metadata>
    <name>Saint-Gens</name>
  </metadata>
  <trk>
    <name><![CDATA[Saint-Gens]]></name>
    <trkseg>
      <trkpt lat="43.96542" lon="5.13869">
        <ele>365.035</ele>
        <time>2021-11-15T18:09:33Z</time>
      </trkpt>
      <trkpt lat="43.96547" lon="5.13873">
        <ele>366.086</ele>
        <time>2021-11-15T18:10:13Z</time>
      </trkpt>
      <trkpt lat="43.96544" lon="5.13885">
        <ele>367.014</ele>
        <time>2021-11-15T18:10:53Z</time>
      </trkpt>
      <trkpt lat="43.96542" lon="5.13884">
        <ele>365.007</ele>
        <time>2021-11-15T18:11:33Z</time>
      </trkpt>
      <trkpt lat="43.9655" lon="5.1387">
        <ele>365.085</ele>
        <time>2021-11-15T18:12:13Z</time>
      </trkpt>
      <trkpt lat="43.96543" lon="5.13884">
        <ele>366.094</ele>
        <time>2021-11-15T18:12:53Z</time>
      </trkpt>
      <trkpt lat="43.96536" lon="5.13907">
        <ele>369.047</ele>
        <time>2021-11-15T18:13:33Z</time>
      </trkpt>
      <trkpt lat="43.96523" lon="5.13924">
        <ele>368.019</ele>
        <time>2021-11-15T18:14:13Z</time>
      </trkpt>
      <trkpt lat="43.96517" lon="5.13947">
        <ele>370.064</ele>
        <time>2021-11-15T18:14:53Z</time>
      </trkpt>
      <trkpt lat="43.96515" lon="5.13973">
        <ele>373.098</ele>
        <time>2021-11-15T18:15:33Z</time>
      </trkpt>
      <trkpt lat="43.96494" lon="5.14046">
        <ele>384.073</ele>
        <time>2021-11-15T18:16:13Z</time>
      </trkpt>
      <trkpt lat="43.96482" lon="5.14052">
        <ele>384.097</ele>
        <time>2021-11-15T18:16:53Z</time>
      </trkpt>
      <trkpt lat="43.96469" lon="5.14043">
        <ele>389.023</ele>
        <time>2021-11-15T18:17:33Z</time>
      </trkpt>
      <trkpt lat="43.96452" lon="5.14039">
        <ele>398.025</ele>
        <time>2021-11-15T18:18:13Z</time>
      </trkpt>
      <trkpt lat="43.96457" lon="5.14086">
        <ele>401.007</ele>
        <time>2021-11-15T18:18:53Z</time>
      </trkpt>
      <trkpt lat="43.96449" lon="5.14109">
        <ele>401.071</ele>
        <time>2021-11-15T18:19:33Z</time>
      </trkpt>
      <trkpt lat="43.96429" lon="5.1415">
        <ele>398.01</ele>
        <time>2021-11-15T18:20:13Z</time>
      </trkpt>
      <trkpt lat="43.96415" lon="5.14162">
        <ele>398.083</ele>
        <time>2021-11-15T18:20:53Z</time>
      </trkpt>
      <trkpt lat="43.96398" lon="5.14168">
        <ele>401.035</ele>
        <time>2021-11-15T18:21:33Z</time>
      </trkpt>
      <trkpt lat="43.96385" lon="5.14188">
        <ele>401.01</ele>
        <time>2021-11-15T18:22:13Z</time>
      </trkpt>
      <trkpt lat="43.96353" lon="5.14208">
        <ele>390.094</ele>
        <time>2021-11-15T18:22:53Z</time>
      </trkpt>
      <trkpt lat="43.96333" lon="5.1421">
        <ele>395.069</ele>
        <time>2021-11-15T18:23:33Z</time>
      </trkpt>
      <trkpt lat="43.96308" lon="5.14225">
        <ele>414.063</ele>
        <time>2021-11-15T18:24:13Z</time>
      </trkpt>
      <trkpt lat="43.96286" lon="5.14232">
        <ele>422.044</ele>
        <time>2021-11-15T18:24:53Z</time>
      </trkpt>
      <trkpt lat="43.96242" lon="5.14319">
        <ele>436.018</ele>
        <time>2021-11-15T18:25:33Z</time>
      </trkpt>
      <trkpt lat="43.96222" lon="5.14361">
        <ele>440.007</ele>
        <time>2021-11-15T18:26:13Z</time>
      </trkpt>
      <trkpt lat="43.96211" lon="5.14371">
        <ele>448.038</ele>
        <time>2021-11-15T18:26:53Z</time>
      </trkpt>
      <trkpt lat="43.96214" lon="5.14341">
        <ele>458.017</ele>
        <time>2021-11-15T18:27:33Z</time>
      </trkpt>
      <trkpt lat="43.96213" lon="5.14316">
        <ele>461.07</ele>
        <time>2021-11-15T18:28:13Z</time>
      </trkpt>
      <trkpt lat="43.96217" lon="5.14289">
        <ele>462.012</ele>
        <time>2021-11-15T18:28:53Z</time>
      </trkpt>
      <trkpt lat="43.96209" lon="5.14284">
        <ele>464.067</ele>
        <time>2021-11-15T18:29:33Z</time>
      </trkpt>
      <trkpt lat="43.96175" lon="5.14282">
        <ele>472.041</ele>
        <time>2021-11-15T18:30:13Z</time>
      </trkpt>
      <trkpt lat="43.96158" lon="5.14271">
        <ele>478.046</ele>
        <time>2021-11-15T18:30:53Z</time>
      </trkpt>
      <trkpt lat="43.96142" lon="5.14274">
        <ele>480.084</ele>
        <time>2021-11-15T18:31:33Z</time>
      </trkpt>
      <trkpt lat="43.96126" lon="5.14282">
        <ele>486.007</ele>
        <time>2021-11-15T18:32:13Z</time>
      </trkpt>
      <trkpt lat="43.96108" lon="5.14287">
        <ele>489.017</ele>
        <time>2021-11-15T18:32:53Z</time>
      </trkpt>
      <trkpt lat="43.96092" lon="5.14289">
        <ele>493.007</ele>
        <time>2021-11-15T18:33:33Z</time>
      </trkpt>
      <trkpt lat="43.96056" lon="5.14275">
        <ele>507.08</ele>
        <time>2021-11-15T18:34:13Z</time>
      </trkpt>
      <trkpt lat="43.9604" lon="5.14274">
        <ele>512.059</ele>
        <time>2021-11-15T18:34:53Z</time>
      </trkpt>
      <trkpt lat="43.96027" lon="5.14268">
        <ele>517.062</ele>
        <time>2021-11-15T18:35:33Z</time>
      </trkpt>
      <trkpt lat="43.96015" lon="5.14257">
        <ele>522.074</ele>
        <time>2021-11-15T18:36:13Z</time>
      </trkpt>
      <trkpt lat="43.95998" lon="5.14247">
        <ele>530.019</ele>
        <time>2021-11-15T18:36:53Z</time>
      </trkpt>
      <trkpt lat="43.95993" lon="5.14225">
        <ele>537.083</ele>
        <time>2021-11-15T18:37:33Z</time>
      </trkpt>
      <trkpt lat="43.95978" lon="5.14218">
        <ele>541.038</ele>
        <time>2021-11-15T18:38:13Z</time>
      </trkpt>
      <trkpt lat="43.95962" lon="5.14214">
        <ele>543.038</ele>
        <time>2021-11-15T18:38:53Z</time>
      </trkpt>
      <trkpt lat="43.95943" lon="5.14216">
        <ele>546.07</ele>
        <time>2021-11-15T18:39:33Z</time>
      </trkpt>
      <trkpt lat="43.95911" lon="5.14228">
        <ele>553.017</ele>
        <time>2021-11-15T18:40:13Z</time>
      </trkpt>
      <trkpt lat="43.95892" lon="5.1423">
        <ele>553.007</ele>
        <time>2021-11-15T18:40:53Z</time>
      </trkpt>
      <trkpt lat="43.95865" lon="5.14266">
        <ele>557.095</ele>
        <time>2021-11-15T18:41:33Z</time>
      </trkpt>
      <trkpt lat="43.9586" lon="5.14289">
        <ele>566.024</ele>
        <time>2021-11-15T18:42:13Z</time>
      </trkpt>
      <trkpt lat="43.95849" lon="5.14307">
        <ele>567.027</ele>
        <time>2021-11-15T18:42:53Z</time>
      </trkpt>
      <trkpt lat="43.95806" lon="5.14356">
        <ele>573.079</ele>
        <time>2021-11-15T18:43:33Z</time>
      </trkpt>
      <trkpt lat="43.95788" lon="5.14368">
        <ele>572.054</ele>
        <time>2021-11-15T18:44:13Z</time>
      </trkpt>
      <trkpt lat="43.95749" lon="5.14374">
        <ele>574.048</ele>
        <time>2021-11-15T18:44:53Z</time>
      </trkpt>
      <trkpt lat="43.95735" lon="5.1439">
        <ele>579.053</ele>
        <time>2021-11-15T18:45:33Z</time>
      </trkpt>
      <trkpt lat="43.95678" lon="5.14381">
        <ele>584.025</ele>
        <time>2021-11-15T18:46:13Z</time>
      </trkpt>
      <trkpt lat="43.95659" lon="5.14375">
        <ele>587.026</ele>
        <time>2021-11-15T18:46:53Z</time>
      </trkpt>
      <trkpt lat="43.9564" lon="5.14378">
        <ele>588.008</ele>
        <time>2021-11-15T18:47:33Z</time>
      </trkpt>
      <trkpt lat="43.95622" lon="5.14377">
        <ele>591.007</ele>
        <time>2021-11-15T18:48:13Z</time>
      </trkpt>
      <trkpt lat="43.95604" lon="5.14371">
        <ele>595.034</ele>
        <time>2021-11-15T18:48:53Z</time>
      </trkpt>
      <trkpt lat="43.9557" lon="5.14349">
        <ele>601.013</ele>
        <time>2021-11-15T18:49:33Z</time>
      </trkpt>
      <trkpt lat="43.95539" lon="5.14325">
        <ele>606.076</ele>
        <time>2021-11-15T18:50:13Z</time>
      </trkpt>
      <trkpt lat="43.95506" lon="5.14314">
        <ele>613.038</ele>
        <time>2021-11-15T18:50:53Z</time>
      </trkpt>
      <trkpt lat="43.95491" lon="5.14305">
        <ele>614.063</ele>
        <time>2021-11-15T18:51:33Z</time>
      </trkpt>
      <trkpt lat="43.95472" lon="5.14301">
        <ele>619.097</ele>
        <time>2021-11-15T18:52:13Z</time>
      </trkpt>
      <trkpt lat="43.95459" lon="5.14292">
        <ele>624.072</ele>
        <time>2021-11-15T18:52:53Z</time>
      </trkpt>
      <trkpt lat="43.95451" lon="5.14277">
        <ele>633.046</ele>
        <time>2021-11-15T18:53:33Z</time>
      </trkpt>
      <trkpt lat="43.95438" lon="5.14268">
        <ele>637.088</ele>
        <time>2021-11-15T18:54:13Z</time>
      </trkpt>
      <trkpt lat="43.95431" lon="5.14259">
        <ele>642.016</ele>
        <time>2021-11-15T18:54:53Z</time>
      </trkpt>
      <trkpt lat="43.95416" lon="5.14258">
        <ele>644.007</ele>
        <time>2021-11-15T18:55:33Z</time>
      </trkpt>
      <trkpt lat="43.95409" lon="5.14253">
        <ele>645.056</ele>
        <time>2021-11-15T18:56:13Z</time>
      </trkpt>
      <trkpt lat="43.95412" lon="5.14259">
        <ele>637.045</ele>
        <time>2021-11-15T18:56:53Z</time>
      </trkpt>
      <trkpt lat="43.95416" lon="5.14252">
        <ele>636.038</ele>
        <time>2021-11-15T18:57:33Z</time>
      </trkpt>
      <trkpt lat="43.95403" lon="5.14235">
        <ele>639.02</ele>
        <time>2021-11-15T18:58:13Z</time>
      </trkpt>
      <trkpt lat="43.95387" lon="5.14231">
        <ele>638.025</ele>
        <time>2021-11-15T18:58:53Z</time>
      </trkpt>
      <trkpt lat="43.95384" lon="5.14213">
        <ele>633.079</ele>
        <time>2021-11-15T18:59:33Z</time>
      </trkpt>
      <trkpt lat="43.954" lon="5.14197">
        <ele>629.014</ele>
        <time>2021-11-15T19:00:13Z</time>
      </trkpt>
      <trkpt lat="43.95409" lon="5.14175">
        <ele>627.066</ele>
        <time>2021-11-15T19:00:53Z</time>
      </trkpt>
      <trkpt lat="43.95432" lon="5.14136">
        <ele>621.029</ele>
        <time>2021-11-15T19:01:33Z</time>
      </trkpt>
      <trkpt lat="43.95452" lon="5.14098">
        <ele>614.021</ele>
        <time>2021-11-15T19:02:13Z</time>
      </trkpt>
      <trkpt lat="43.95463" lon="5.14081">
        <ele>610.007</ele>
        <time>2021-11-15T19:02:53Z</time>
      </trkpt>
      <trkpt lat="43.95464" lon="5.14071">
        <ele>608.098</ele>
        <time>2021-11-15T19:03:33Z</time>
      </trkpt>
      <trkpt lat="43.95472" lon="5.14058">
        <ele>606.077</ele>
        <time>2021-11-15T19:04:13Z</time>
      </trkpt>
      <trkpt lat="43.95474" lon="5.14039">
        <ele>601.06</ele>
        <time>2021-11-15T19:04:53Z</time>
      </trkpt>
      <trkpt lat="43.95466" lon="5.14019">
        <ele>600.082</ele>
        <time>2021-11-15T19:05:33Z</time>
      </trkpt>
      <trkpt lat="43.95472" lon="5.1397">
        <ele>593.027</ele>
        <time>2021-11-15T19:06:13Z</time>
      </trkpt>
      <trkpt lat="43.95484" lon="5.13954">
        <ele>588.041</ele>
        <time>2021-11-15T19:06:53Z</time>
      </trkpt>
      <trkpt lat="43.95498" lon="5.13943">
        <ele>585.076</ele>
        <time>2021-11-15T19:07:33Z</time>
      </trkpt>
      <trkpt lat="43.95506" lon="5.13924">
        <ele>582.071</ele>
        <time>2021-11-15T19:08:13Z</time>
      </trkpt>
      <trkpt lat="43.95511" lon="5.13901">
        <ele>576.041</ele>
        <time>2021-11-15T19:08:53Z</time>
      </trkpt>
      <trkpt lat="43.95513" lon="5.13874">
        <ele>573.015</ele>
        <time>2021-11-15T19:09:33Z</time>
      </trkpt>
      <trkpt lat="43.95506" lon="5.1385">
        <ele>572.007</ele>
        <time>2021-11-15T19:10:13Z</time>
      </trkpt>
      <trkpt lat="43.9549" lon="5.13848">
        <ele>568.049</ele>
        <time>2021-11-15T19:10:53Z</time>
      </trkpt>
      <trkpt lat="43.9548" lon="5.13829">
        <ele>565.088</ele>
        <time>2021-11-15T19:11:33Z</time>
      </trkpt>
      <trkpt lat="43.95484" lon="5.13806">
        <ele>561.051</ele>
        <time>2021-11-15T19:12:13Z</time>
      </trkpt>
      <trkpt lat="43.95486" lon="5.13781">
        <ele>560.073</ele>
        <time>2021-11-15T19:12:53Z</time>
      </trkpt>
      <trkpt lat="43.9549" lon="5.13756">
        <ele>558.018</ele>
        <time>2021-11-15T19:13:33Z</time>
      </trkpt>
      <trkpt lat="43.95501" lon="5.13708">
        <ele>552.012</ele>
        <time>2021-11-15T19:14:13Z</time>
      </trkpt>
      <trkpt lat="43.95508" lon="5.13683">
        <ele>549.067</ele>
        <time>2021-11-15T19:14:53Z</time>
      </trkpt>
      <trkpt lat="43.9552" lon="5.13614">
        <ele>543.046</ele>
        <time>2021-11-15T19:15:33Z</time>
      </trkpt>
      <trkpt lat="43.95529" lon="5.13593">
        <ele>539.088</ele>
        <time>2021-11-15T19:16:13Z</time>
      </trkpt>
      <trkpt lat="43.95542" lon="5.13577">
        <ele>536.016</ele>
        <time>2021-11-15T19:16:53Z</time>
      </trkpt>
      <trkpt lat="43.95565" lon="5.13503">
        <ele>531.007</ele>
        <time>2021-11-15T19:17:33Z</time>
      </trkpt>
      <trkpt lat="43.95575" lon="5.13482">
        <ele>529.076</ele>
        <time>2021-11-15T19:18:13Z</time>
      </trkpt>
      <trkpt lat="43.95601" lon="5.13405">
        <ele>519.065</ele>
        <time>2021-11-15T19:18:53Z</time>
      </trkpt>
      <trkpt lat="43.95611" lon="5.13384">
        <ele>517.058</ele>
        <time>2021-11-15T19:19:33Z</time>
      </trkpt>
      <trkpt lat="43.95625" lon="5.13364">
        <ele>513.01</ele>
        <time>2021-11-15T19:20:13Z</time>
      </trkpt>
      <trkpt lat="43.95642" lon="5.13349">
        <ele>513.015</ele>
        <time>2021-11-15T19:20:53Z</time>
      </trkpt>
      <trkpt lat="43.95689" lon="5.13298">
        <ele>506.069</ele>
        <time>2021-11-15T19:21:33Z</time>
      </trkpt>
      <trkpt lat="43.95703" lon="5.13281">
        <ele>505.024</ele>
        <time>2021-11-15T19:22:13Z</time>
      </trkpt>
      <trkpt lat="43.95719" lon="5.13268">
        <ele>503.079</ele>
        <time>2021-11-15T19:22:53Z</time>
      </trkpt>
      <trkpt lat="43.95738" lon="5.13269">
        <ele>501.005</ele>
        <time>2021-11-15T19:23:33Z</time>
      </trkpt>
      <trkpt lat="43.95755" lon="5.13263">
        <ele>503.025</ele>
        <time>2021-11-15T19:24:13Z</time>
      </trkpt>
      <trkpt lat="43.95772" lon="5.13252">
        <ele>502.007</ele>
        <time>2021-11-15T19:24:53Z</time>
      </trkpt>
      <trkpt lat="43.95783" lon="5.13233">
        <ele>501.089</ele>
        <time>2021-11-15T19:25:33Z</time>
      </trkpt>
      <trkpt lat="43.95798" lon="5.13223">
        <ele>500.058</ele>
        <time>2021-11-15T19:26:13Z</time>
      </trkpt>
      <trkpt lat="43.95812" lon="5.13223">
        <ele>498.091</ele>
        <time>2021-11-15T19:26:53Z</time>
      </trkpt>
      <trkpt lat="43.95803" lon="5.13243">
        <ele>498.053</ele>
        <time>2021-11-15T19:27:33Z</time>
      </trkpt>
      <trkpt lat="43.95816" lon="5.13263">
        <ele>491.088</ele>
        <time>2021-11-15T19:28:13Z</time>
      </trkpt>
      <trkpt lat="43.95835" lon="5.13309">
        <ele>492.092</ele>
        <time>2021-11-15T19:28:53Z</time>
      </trkpt>
      <trkpt lat="43.95864" lon="5.13399">
        <ele>486.077</ele>
        <time>2021-11-15T19:29:33Z</time>
      </trkpt>
      <trkpt lat="43.95865" lon="5.13421">
        <ele>487.065</ele>
        <time>2021-11-15T19:30:13Z</time>
      </trkpt>
      <trkpt lat="43.95872" lon="5.13444">
        <ele>486.068</ele>
        <time>2021-11-15T19:30:53Z</time>
      </trkpt>
      <trkpt lat="43.95896" lon="5.13467">
        <ele>481.014</ele>
        <time>2021-11-15T19:31:33Z</time>
      </trkpt>
      <trkpt lat="43.95912" lon="5.13479">
        <ele>478.007</ele>
        <time>2021-11-15T19:32:13Z</time>
      </trkpt>
      <trkpt lat="43.95927" lon="5.13497">
        <ele>476.098</ele>
        <time>2021-11-15T19:32:53Z</time>
      </trkpt>
      <trkpt lat="43.95939" lon="5.13517">
        <ele>472.057</ele>
        <time>2021-11-15T19:33:33Z</time>
      </trkpt>
      <trkpt lat="43.95963" lon="5.13556">
        <ele>467.07</ele>
        <time>2021-11-15T19:34:13Z</time>
      </trkpt>
      <trkpt lat="43.95967" lon="5.13573">
        <ele>467.082</ele>
        <time>2021-11-15T19:34:53Z</time>
      </trkpt>
      <trkpt lat="43.95976" lon="5.13577">
        <ele>465.077</ele>
        <time>2021-11-15T19:35:33Z</time>
      </trkpt>
      <trkpt lat="43.96027" lon="5.13617">
        <ele>467.091</ele>
        <time>2021-11-15T19:36:13Z</time>
      </trkpt>
      <trkpt lat="43.96063" lon="5.13635">
        <ele>461.096</ele>
        <time>2021-11-15T19:36:53Z</time>
      </trkpt>
      <trkpt lat="43.96098" lon="5.13666">
        <ele>454.094</ele>
        <time>2021-11-15T19:37:33Z</time>
      </trkpt>
      <trkpt lat="43.96132" lon="5.13647">
        <ele>466.057</ele>
        <time>2021-11-15T19:38:13Z</time>
      </trkpt>
      <trkpt lat="43.96148" lon="5.13647">
        <ele>466.022</ele>
        <time>2021-11-15T19:38:53Z</time>
      </trkpt>
      <trkpt lat="43.96166" lon="5.13643">
        <ele>474.007</ele>
        <time>2021-11-15T19:39:33Z</time>
      </trkpt>
      <trkpt lat="43.96184" lon="5.13634">
        <ele>476.011</ele>
        <time>2021-11-15T19:40:13Z</time>
      </trkpt>
      <trkpt lat="43.96219" lon="5.13631">
        <ele>474.09</ele>
        <time>2021-11-15T19:40:53Z</time>
      </trkpt>
      <trkpt lat="43.96259" lon="5.13623">
        <ele>475.093</ele>
        <time>2021-11-15T19:41:33Z</time>
      </trkpt>
      <trkpt lat="43.96289" lon="5.13606">
        <ele>482.035</ele>
        <time>2021-11-15T19:42:13Z</time>
      </trkpt>
      <trkpt lat="43.96307" lon="5.136">
        <ele>482.08</ele>
        <time>2021-11-15T19:42:53Z</time>
      </trkpt>
      <trkpt lat="43.96325" lon="5.13598">
        <ele>483.044</ele>
        <time>2021-11-15T19:43:33Z</time>
      </trkpt>
      <trkpt lat="43.96359" lon="5.13588">
        <ele>481.099</ele>
        <time>2021-11-15T19:44:13Z</time>
      </trkpt>
      <trkpt lat="43.96378" lon="5.13578">
        <ele>479.079</ele>
        <time>2021-11-15T19:44:53Z</time>
      </trkpt>
      <trkpt lat="43.96396" lon="5.13574">
        <ele>479.005</ele>
        <time>2021-11-15T19:45:33Z</time>
      </trkpt>
      <trkpt lat="43.96414" lon="5.13567">
        <ele>476.025</ele>
        <time>2021-11-15T19:46:13Z</time>
      </trkpt>
      <trkpt lat="43.96431" lon="5.13556">
        <ele>474.007</ele>
        <time>2021-11-15T19:46:53Z</time>
      </trkpt>
      <trkpt lat="43.96466" lon="5.13546">
        <ele>472.069</ele>
        <time>2021-11-15T19:47:33Z</time>
      </trkpt>
      <trkpt lat="43.96483" lon="5.13536">
        <ele>473.098</ele>
        <time>2021-11-15T19:48:13Z</time>
      </trkpt>
      <trkpt lat="43.96499" lon="5.13523">
        <ele>473.081</ele>
        <time>2021-11-15T19:48:53Z</time>
      </trkpt>
      <trkpt lat="43.96513" lon="5.13506">
        <ele>475.053</ele>
        <time>2021-11-15T19:49:33Z</time>
      </trkpt>
      <trkpt lat="43.96541" lon="5.13481">
        <ele>470.078</ele>
        <time>2021-11-15T19:50:13Z</time>
      </trkpt>
      <trkpt lat="43.96542" lon="5.13474">
        <ele>468.012</ele>
        <time>2021-11-15T19:50:53Z</time>
      </trkpt>
      <trkpt lat="43.96555" lon="5.13482">
        <ele>470.077</ele>
        <time>2021-11-15T19:51:33Z</time>
      </trkpt>
      <trkpt lat="43.96569" lon="5.13471">
        <ele>471.038</ele>
        <time>2021-11-15T19:52:13Z</time>
      </trkpt>
      <trkpt lat="43.96581" lon="5.1345">
        <ele>465.07</ele>
        <time>2021-11-15T19:52:53Z</time>
      </trkpt>
      <trkpt lat="43.96587" lon="5.13406">
        <ele>459.017</ele>
        <time>2021-11-15T19:53:33Z</time>
      </trkpt>
      <trkpt lat="43.96585" lon="5.13357">
        <ele>450.007</ele>
        <time>2021-11-15T19:54:13Z</time>
      </trkpt>
      <trkpt lat="43.96588" lon="5.13308">
        <ele>452.075</ele>
        <time>2021-11-15T19:54:53Z</time>
      </trkpt>
      <trkpt lat="43.96595" lon="5.13286">
        <ele>447.044</ele>
        <time>2021-11-15T19:55:33Z</time>
      </trkpt>
      <trkpt lat="43.96624" lon="5.13258">
        <ele>439.027</ele>
        <time>2021-11-15T19:56:13Z</time>
      </trkpt>
      <trkpt lat="43.9664" lon="5.13244">
        <ele>436.069</ele>
        <time>2021-11-15T19:56:53Z</time>
      </trkpt>
      <trkpt lat="43.96651" lon="5.13225">
        <ele>433.094</ele>
        <time>2021-11-15T19:57:33Z</time>
      </trkpt>
      <trkpt lat="43.96658" lon="5.13207">
        <ele>429.058</ele>
        <time>2021-11-15T19:58:13Z</time>
      </trkpt>
      <trkpt lat="43.96658" lon="5.13188">
        <ele>429.063</ele>
        <time>2021-11-15T19:58:53Z</time>
      </trkpt>
      <trkpt lat="43.96652" lon="5.13162">
        <ele>428.026</ele>
        <time>2021-11-15T19:59:33Z</time>
      </trkpt>
      <trkpt lat="43.96645" lon="5.13138">
        <ele>426.047</ele>
        <time>2021-11-15T20:00:13Z</time>
      </trkpt>
      <trkpt lat="43.96632" lon="5.13118">
        <ele>423.011</ele>
        <time>2021-11-15T20:00:53Z</time>
      </trkpt>
      <trkpt lat="43.96615" lon="5.13103">
        <ele>419.007</ele>
        <time>2021-11-15T20:01:33Z</time>
      </trkpt>
      <trkpt lat="43.96596" lon="5.13095">
        <ele>418.064</ele>
        <time>2021-11-15T20:02:13Z</time>
      </trkpt>
      <trkpt lat="43.96578" lon="5.13094">
        <ele>414.093</ele>
        <time>2021-11-15T20:02:53Z</time>
      </trkpt>
      <trkpt lat="43.96562" lon="5.13087">
        <ele>413.016</ele>
        <time>2021-11-15T20:03:33Z</time>
      </trkpt>
      <trkpt lat="43.9655" lon="5.13046">
        <ele>412.098</ele>
        <time>2021-11-15T20:04:13Z</time>
      </trkpt>
      <trkpt lat="43.96563" lon="5.13041">
        <ele>414.083</ele>
        <time>2021-11-15T20:04:53Z</time>
      </trkpt>
      <trkpt lat="43.96566" lon="5.13047">
        <ele>411.017</ele>
        <time>2021-11-15T20:05:33Z</time>
      </trkpt>
      <trkpt lat="43.96565" lon="5.13038">
        <ele>409.032</ele>
        <time>2021-11-15T20:06:13Z</time>
      </trkpt>
      <trkpt lat="43.96583" lon="5.13038">
        <ele>409.093</ele>
        <time>2021-11-15T20:06:53Z</time>
      </trkpt>
      <trkpt lat="43.96602" lon="5.13031">
        <ele>409.065</ele>
        <time>2021-11-15T20:07:33Z</time>
      </trkpt>
      <trkpt lat="43.96636" lon="5.13025">
        <ele>413.021</ele>
        <time>2021-11-15T20:08:13Z</time>
      </trkpt>
      <trkpt lat="43.9669" lon="5.1302">
        <ele>416.007</ele>
        <time>2021-11-15T20:08:53Z</time>
      </trkpt>
      <trkpt lat="43.96728" lon="5.13011">
        <ele>416.091</ele>
        <time>2021-11-15T20:09:33Z</time>
      </trkpt>
      <trkpt lat="43.96763" lon="5.1299">
        <ele>412.05</ele>
        <time>2021-11-15T20:10:13Z</time>
      </trkpt>
      <trkpt lat="43.96777" lon="5.12972">
        <ele>410.013</ele>
        <time>2021-11-15T20:10:53Z</time>
      </trkpt>
      <trkpt lat="43.96793" lon="5.12959">
        <ele>409.055</ele>
        <time>2021-11-15T20:11:33Z</time>
      </trkpt>
      <trkpt lat="43.96859" lon="5.12914">
        <ele>406.05</ele>
        <time>2021-11-15T20:12:13Z</time>
      </trkpt>
      <trkpt lat="43.96875" lon="5.12901">
        <ele>405.014</ele>
        <time>2021-11-15T20:12:53Z</time>
      </trkpt>
      <trkpt lat="43.96892" lon="5.12892">
        <ele>404.039</ele>
        <time>2021-11-15T20:13:33Z</time>
      </trkpt>
      <trkpt lat="43.96909" lon="5.12883">
        <ele>403.067</ele>
        <time>2021-11-15T20:14:13Z</time>
      </trkpt>
      <trkpt lat="43.96928" lon="5.12884">
        <ele>402.081</ele>
        <time>2021-11-15T20:14:53Z</time>
      </trkpt>
      <trkpt lat="43.96946" lon="5.12878">
        <ele>400.019</ele>
        <time>2021-11-15T20:15:33Z</time>
      </trkpt>
      <trkpt lat="43.96957" lon="5.12856">
        <ele>397.007</ele>
        <time>2021-11-15T20:16:13Z</time>
      </trkpt>
      <trkpt lat="43.96984" lon="5.12785">
        <ele>387.068</ele>
        <time>2021-11-15T20:16:53Z</time>
      </trkpt>
      <trkpt lat="43.97002" lon="5.12764">
        <ele>389.057</ele>
        <time>2021-11-15T20:17:33Z</time>
      </trkpt>
      <trkpt lat="43.97062" lon="5.12687">
        <ele>389.04</ele>
        <time>2021-11-15T20:18:13Z</time>
      </trkpt>
      <trkpt lat="43.97082" lon="5.12644">
        <ele>388.072</ele>
        <time>2021-11-15T20:18:53Z</time>
      </trkpt>
      <trkpt lat="43.97096" lon="5.12624">
        <ele>389.077</ele>
        <time>2021-11-15T20:19:33Z</time>
      </trkpt>
      <trkpt lat="43.9711" lon="5.12608">
        <ele>386.091</ele>
        <time>2021-11-15T20:20:13Z</time>
      </trkpt>
      <trkpt lat="43.97125" lon="5.12593">
        <ele>382.046</ele>
        <time>2021-11-15T20:20:53Z</time>
      </trkpt>
      <trkpt lat="43.97158" lon="5.12573">
        <ele>372.039</ele>
        <time>2021-11-15T20:21:33Z</time>
      </trkpt>
      <trkpt lat="43.97208" lon="5.12557">
        <ele>383.001</ele>
        <time>2021-11-15T20:22:13Z</time>
      </trkpt>
      <trkpt lat="43.97245" lon="5.12549">
        <ele>386.021</ele>
        <time>2021-11-15T20:22:53Z</time>
      </trkpt>
      <trkpt lat="43.97279" lon="5.12534">
        <ele>387.007</ele>
        <time>2021-11-15T20:23:33Z</time>
      </trkpt>
      <trkpt lat="43.97298" lon="5.12532">
        <ele>386.095</ele>
        <time>2021-11-15T20:24:13Z</time>
      </trkpt>
      <trkpt lat="43.97314" lon="5.12546">
        <ele>381.044</ele>
        <time>2021-11-15T20:24:53Z</time>
      </trkpt>
      <trkpt lat="43.97331" lon="5.12557">
        <ele>380.027</ele>
        <time>2021-11-15T20:25:33Z</time>
      </trkpt>
      <trkpt lat="43.97349" lon="5.12558">
        <ele>377.049</ele>
        <time>2021-11-15T20:26:13Z</time>
      </trkpt>
      <trkpt lat="43.97366" lon="5.12549">
        <ele>378.084</ele>
        <time>2021-11-15T20:26:53Z</time>
      </trkpt>
      <trkpt lat="43.97379" lon="5.12533">
        <ele>378.078</ele>
        <time>2021-11-15T20:27:33Z</time>
      </trkpt>
      <trkpt lat="43.97457" lon="5.12476">
        <ele>362.083</ele>
        <time>2021-11-15T20:28:13Z</time>
      </trkpt>
      <trkpt lat="43.97472" lon="5.12462">
        <ele>361.018</ele>
        <time>2021-11-15T20:28:53Z</time>
      </trkpt>
      <trkpt lat="43.97489" lon="5.12451">
        <ele>359.098</ele>
        <time>2021-11-15T20:29:33Z</time>
      </trkpt>
      <trkpt lat="43.97524" lon="5.12435">
        <ele>356.017</ele>
        <time>2021-11-15T20:30:13Z</time>
      </trkpt>
      <trkpt lat="43.97558" lon="5.12412">
        <ele>352.007</ele>
        <time>2021-11-15T20:30:53Z</time>
      </trkpt>
      <trkpt lat="43.97595" lon="5.12398">
        <ele>351.073</ele>
        <time>2021-11-15T20:31:33Z</time>
      </trkpt>
      <trkpt lat="43.97631" lon="5.12381">
        <ele>352.032</ele>
        <time>2021-11-15T20:32:13Z</time>
      </trkpt>
      <trkpt lat="43.97684" lon="5.12349">
        <ele>339.025</ele>
        <time>2021-11-15T20:32:53Z</time>
      </trkpt>
      <trkpt lat="43.97731" lon="5.1231">
        <ele>332.087</ele>
        <time>2021-11-15T20:33:33Z</time>
      </trkpt>
      <trkpt lat="43.97749" lon="5.12304">
        <ele>332.062</ele>
        <time>2021-11-15T20:34:13Z</time>
      </trkpt>
      <trkpt lat="43.97768" lon="5.12295">
        <ele>329.066</ele>
        <time>2021-11-15T20:34:53Z</time>
      </trkpt>
      <trkpt lat="43.97788" lon="5.12293">
        <ele>329.011</ele>
        <time>2021-11-15T20:35:33Z</time>
      </trkpt>
      <trkpt lat="43.97823" lon="5.12277">
        <ele>323.071</ele>
        <time>2021-11-15T20:36:13Z</time>
      </trkpt>
      <trkpt lat="43.97837" lon="5.12261">
        <ele>322.041</ele>
        <time>2021-11-15T20:36:53Z</time>
      </trkpt>
      <trkpt lat="43.97841" lon="5.12238">
        <ele>318.015</ele>
        <time>2021-11-15T20:37:33Z</time>
      </trkpt>
      <trkpt lat="43.97849" lon="5.12216">
        <ele>317.007</ele>
        <time>2021-11-15T20:38:13Z</time>
      </trkpt>
      <trkpt lat="43.97863" lon="5.12202">
        <ele>314.059</ele>
        <time>2021-11-15T20:38:53Z</time>
      </trkpt>
      <trkpt lat="43.97879" lon="5.12193">
        <ele>312.098</ele>
        <time>2021-11-15T20:39:33Z</time>
      </trkpt>
      <trkpt lat="43.97897" lon="5.1219">
        <ele>313.021</ele>
        <time>2021-11-15T20:40:13Z</time>
      </trkpt>
      <trkpt lat="43.97913" lon="5.12181">
        <ele>313.033</ele>
        <time>2021-11-15T20:40:53Z</time>
      </trkpt>
      <trkpt lat="43.97973" lon="5.12124">
        <ele>308.088</ele>
        <time>2021-11-15T20:41:33Z</time>
      </trkpt>
      <trkpt lat="43.97989" lon="5.12114">
        <ele>309.042</ele>
        <time>2021-11-15T20:42:13Z</time>
      </trkpt>
      <trkpt lat="43.98001" lon="5.12101">
        <ele>306.067</ele>
        <time>2021-11-15T20:42:53Z</time>
      </trkpt>
      <trkpt lat="43.98018" lon="5.12096">
        <ele>306.011</ele>
        <time>2021-11-15T20:43:33Z</time>
      </trkpt>
      <trkpt lat="43.98029" lon="5.12076">
        <ele>297.021</ele>
        <time>2021-11-15T20:44:13Z</time>
      </trkpt>
      <trkpt lat="43.98046" lon="5.12064">
        <ele>299.003</ele>
        <time>2021-11-15T20:44:53Z</time>
      </trkpt>
      <trkpt lat="43.98064" lon="5.12064">
        <ele>298.007</ele>
        <time>2021-11-15T20:45:33Z</time>
      </trkpt>
      <trkpt lat="43.98082" lon="5.12059">
        <ele>294.093</ele>
        <time>2021-11-15T20:46:13Z</time>
      </trkpt>
      <trkpt lat="43.981" lon="5.1205">
        <ele>291.032</ele>
        <time>2021-11-15T20:46:53Z</time>
      </trkpt>
      <trkpt lat="43.98114" lon="5.12038">
        <ele>289.035</ele>
        <time>2021-11-15T20:47:33Z</time>
      </trkpt>
      <trkpt lat="43.98134" lon="5.12029">
        <ele>293.057</ele>
        <time>2021-11-15T20:48:13Z</time>
      </trkpt>
      <trkpt lat="43.98153" lon="5.12025">
        <ele>289.032</ele>
        <time>2021-11-15T20:48:53Z</time>
      </trkpt>
      <trkpt lat="43.98174" lon="5.12028">
        <ele>281.016</ele>
        <time>2021-11-15T20:49:33Z</time>
      </trkpt>
      <trkpt lat="43.98206" lon="5.12024">
        <ele>271.041</ele>
        <time>2021-11-15T20:50:13Z</time>
      </trkpt>
      <trkpt lat="43.9822" lon="5.12015">
        <ele>271.057</ele>
        <time>2021-11-15T20:50:53Z</time>
      </trkpt>
      <trkpt lat="43.98248" lon="5.11987">
        <ele>268</ele>
        <time>2021-11-15T20:51:33Z</time>
      </trkpt>
      <trkpt lat="43.98261" lon="5.1199">
        <ele>265.02</ele>
        <time>2021-11-15T20:52:13Z</time>
      </trkpt>
      <trkpt lat="43.98274" lon="5.11979">
        <ele>266.007</ele>
        <time>2021-11-15T20:52:53Z</time>
      </trkpt>
      <trkpt lat="43.98285" lon="5.11983">
        <ele>265.097</ele>
        <time>2021-11-15T20:53:33Z</time>
      </trkpt>
      <trkpt lat="43.98292" lon="5.1197">
        <ele>265.026</ele>
        <time>2021-11-15T20:54:13Z</time>
      </trkpt>
      <trkpt lat="43.98314" lon="5.11966">
        <ele>265.099</ele>
        <time>2021-11-15T20:54:53Z</time>
      </trkpt>
      <trkpt lat="43.98323" lon="5.11972">
        <ele>267.021</ele>
        <time>2021-11-15T20:55:33Z</time>
      </trkpt>
      <trkpt lat="43.98333" lon="5.11949">
        <ele>277.076</ele>
        <time>2021-11-15T20:56:13Z</time>
      </trkpt>
      <trkpt lat="43.98353" lon="5.11944">
        <ele>277.02</ele>
        <time>2021-11-15T20:56:53Z</time>
      </trkpt>
      <trkpt lat="43.98362" lon="5.11951">
        <ele>274.015</ele>
        <time>2021-11-15T20:57:33Z</time>
      </trkpt>
      <trkpt lat="43.98372" lon="5.1195">
        <ele>267.064</ele>
        <time>2021-11-15T20:58:13Z</time>
      </trkpt>
      <trkpt lat="43.98389" lon="5.11943">
        <ele>263.006</ele>
        <time>2021-11-15T20:58:53Z</time>
      </trkpt>
      <trkpt lat="43.98401" lon="5.11944">
        <ele>256.016</ele>
        <time>2021-11-15T20:59:33Z</time>
      </trkpt>
      <trkpt lat="43.98409" lon="5.11954">
        <ele>252.007</ele>
        <time>2021-11-15T21:00:13Z</time>
      </trkpt>
      <trkpt lat="43.98418" lon="5.11976">
        <ele>249.098</ele>
        <time>2021-11-15T21:00:53Z</time>
      </trkpt>
      <trkpt lat="43.98424" lon="5.12">
        <ele>248.017</ele>
        <time>2021-11-15T21:01:33Z</time>
      </trkpt>
      <trkpt lat="43.98427" lon="5.12024">
        <ele>249.04</ele>
        <time>2021-11-15T21:02:13Z</time>
      </trkpt>
      <trkpt lat="43.98425" lon="5.12049">
        <ele>246.062</ele>
        <time>2021-11-15T21:02:53Z</time>
      </trkpt>
      <trkpt lat="43.98422" lon="5.12071">
        <ele>245.087</ele>
        <time>2021-11-15T21:03:33Z</time>
      </trkpt>
      <trkpt lat="43.98413" lon="5.12091">
        <ele>246.081</ele>
        <time>2021-11-15T21:04:13Z</time>
      </trkpt>
      <trkpt lat="43.98378" lon="5.12186">
        <ele>252.086</ele>
        <time>2021-11-15T21:04:53Z</time>
      </trkpt>
      <trkpt lat="43.98364" lon="5.12233">
        <ele>257.078</ele>
        <time>2021-11-15T21:05:33Z</time>
      </trkpt>
      <trkpt lat="43.9836" lon="5.12258">
        <ele>257.033</ele>
        <time>2021-11-15T21:06:13Z</time>
      </trkpt>
      <trkpt lat="43.98361" lon="5.12307">
        <ele>255.026</ele>
        <time>2021-11-15T21:06:53Z</time>
      </trkpt>
      <trkpt lat="43.98359" lon="5.12331">
        <ele>255.007</ele>
        <time>2021-11-15T21:07:33Z</time>
      </trkpt>
      <trkpt lat="43.98359" lon="5.12358">
        <ele>254.029</ele>
        <time>2021-11-15T21:08:13Z</time>
      </trkpt>
      <trkpt lat="43.98355" lon="5.12387">
        <ele>253.018</ele>
        <time>2021-11-15T21:08:53Z</time>
      </trkpt>
      <trkpt lat="43.98342" lon="5.12409">
        <ele>249.031</ele>
        <time>2021-11-15T21:09:33Z</time>
      </trkpt>
      <trkpt lat="43.98329" lon="5.12426">
        <ele>249.063</ele>
        <time>2021-11-15T21:10:13Z</time>
      </trkpt>
      <trkpt lat="43.98305" lon="5.12466">
        <ele>247.088</ele>
        <time>2021-11-15T21:10:53Z</time>
      </trkpt>
      <trkpt lat="43.98288" lon="5.12479">
        <ele>245.062</ele>
        <time>2021-11-15T21:11:33Z</time>
      </trkpt>
      <trkpt lat="43.9827" lon="5.12485">
        <ele>243.057</ele>
        <time>2021-11-15T21:12:13Z</time>
      </trkpt>
      <trkpt lat="43.98263" lon="5.12498">
        <ele>242.097</ele>
        <time>2021-11-15T21:12:53Z</time>
      </trkpt>
      <trkpt lat="43.98292" lon="5.12487">
        <ele>242.023</ele>
        <time>2021-11-15T21:13:33Z</time>
      </trkpt>
      <trkpt lat="43.98322" lon="5.12466">
        <ele>244.025</ele>
        <time>2021-11-15T21:14:13Z</time>
      </trkpt>
      <trkpt lat="43.9833" lon="5.12476">
        <ele>240.007</ele>
        <time>2021-11-15T21:14:53Z</time>
      </trkpt>
      <trkpt lat="43.98339" lon="5.12527">
        <ele>236.051</ele>
        <time>2021-11-15T21:15:33Z</time>
      </trkpt>
      <trkpt lat="43.98341" lon="5.12552">
        <ele>237.02</ele>
        <time>2021-11-15T21:16:13Z</time>
      </trkpt>
      <trkpt lat="43.98338" lon="5.12577">
        <ele>240.053</ele>
        <time>2021-11-15T21:16:53Z</time>
      </trkpt>
      <trkpt lat="43.98342" lon="5.12606">
        <ele>242.065</ele>
        <time>2021-11-15T21:17:33Z</time>
      </trkpt>
      <trkpt lat="43.98342" lon="5.12629">
        <ele>245.08</ele>
        <time>2021-11-15T21:18:13Z</time>
      </trkpt>
      <trkpt lat="43.98338" lon="5.12654">
        <ele>245.044</ele>
        <time>2021-11-15T21:18:53Z</time>
      </trkpt>
      <trkpt lat="43.98338" lon="5.12705">
        <ele>242.049</ele>
        <time>2021-11-15T21:19:33Z</time>
      </trkpt>
      <trkpt lat="43.98347" lon="5.12733">
        <ele>245.047</ele>
        <time>2021-11-15T21:20:13Z</time>
      </trkpt>
      <trkpt lat="43.98347" lon="5.12757">
        <ele>245.029</ele>
        <time>2021-11-15T21:20:53Z</time>
      </trkpt>
      <trkpt lat="43.98341" lon="5.1278">
        <ele>249.021</ele>
        <time>2021-11-15T21:21:33Z</time>
      </trkpt>
      <trkpt lat="43.98333" lon="5.12829">
        <ele>256.007</ele>
        <time>2021-11-15T21:22:13Z</time>
      </trkpt>
      <trkpt lat="43.98343" lon="5.1285">
        <ele>258.096</ele>
        <time>2021-11-15T21:22:53Z</time>
      </trkpt>
      <trkpt lat="43.98332" lon="5.12871">
        <ele>256.085</ele>
        <time>2021-11-15T21:23:33Z</time>
      </trkpt>
      <trkpt lat="43.98319" lon="5.12916">
        <ele>256.048</ele>
        <time>2021-11-15T21:24:13Z</time>
      </trkpt>
      <trkpt lat="43.98327" lon="5.12921">
        <ele>261.02</ele>
        <time>2021-11-15T21:24:53Z</time>
      </trkpt>
      <trkpt lat="43.98327" lon="5.12942">
        <ele>264.025</ele>
        <time>2021-11-15T21:25:33Z</time>
      </trkpt>
      <trkpt lat="43.98321" lon="5.1296">
        <ele>268.049</ele>
        <time>2021-11-15T21:26:13Z</time>
      </trkpt>
      <trkpt lat="43.9834" lon="5.12973">
        <ele>274.014</ele>
        <time>2021-11-15T21:26:53Z</time>
      </trkpt>
      <trkpt lat="43.98346" lon="5.12999">
        <ele>275.077</ele>
        <time>2021-11-15T21:27:33Z</time>
      </trkpt>
      <trkpt lat="43.98335" lon="5.13053">
        <ele>277.061</ele>
        <time>2021-11-15T21:28:13Z</time>
      </trkpt>
      <trkpt lat="43.9834" lon="5.13075">
        <ele>286.027</ele>
        <time>2021-11-15T21:28:53Z</time>
      </trkpt>
      <trkpt lat="43.98353" lon="5.13088">
        <ele>293.007</ele>
        <time>2021-11-15T21:29:33Z</time>
      </trkpt>
      <trkpt lat="43.98354" lon="5.13109">
        <ele>295.059</ele>
        <time>2021-11-15T21:30:13Z</time>
      </trkpt>
      <trkpt lat="43.98365" lon="5.13132">
        <ele>300.018</ele>
        <time>2021-11-15T21:30:53Z</time>
      </trkpt>
      <trkpt lat="43.98365" lon="5.13182">
        <ele>302.021</ele>
        <time>2021-11-15T21:31:33Z</time>
      </trkpt>
      <trkpt lat="43.98369" lon="5.13201">
        <ele>304.083</ele>
        <time>2021-11-15T21:32:13Z</time>
      </trkpt>
      <trkpt lat="43.98366" lon="5.1322">
        <ele>303.098</ele>
        <time>2021-11-15T21:32:53Z</time>
      </trkpt>
      <trkpt lat="43.98352" lon="5.13263">
        <ele>306.012</ele>
        <time>2021-11-15T21:33:33Z</time>
      </trkpt>
      <trkpt lat="43.98345" lon="5.13286">
        <ele>308.017</ele>
        <time>2021-11-15T21:34:13Z</time>
      </trkpt>
      <trkpt lat="43.98343" lon="5.13308">
        <ele>307.089</ele>
        <time>2021-11-15T21:34:53Z</time>
      </trkpt>
      <trkpt lat="43.98323" lon="5.13351">
        <ele>307.006</ele>
        <time>2021-11-15T21:35:33Z</time>
      </trkpt>
      <trkpt lat="43.98311" lon="5.134">
        <ele>310.026</ele>
        <time>2021-11-15T21:36:13Z</time>
      </trkpt>
      <trkpt lat="43.98303" lon="5.1342">
        <ele>312.007</ele>
        <time>2021-11-15T21:36:53Z</time>
      </trkpt>
      <trkpt lat="43.98295" lon="5.13459">
        <ele>314.08</ele>
        <time>2021-11-15T21:37:33Z</time>
      </trkpt>
      <trkpt lat="43.98284" lon="5.13468">
        <ele>316.019</ele>
        <time>2021-11-15T21:38:13Z</time>
      </trkpt>
      <trkpt lat="43.98271" lon="5.13483">
        <ele>317.082</ele>
        <time>2021-11-15T21:38:53Z</time>
      </trkpt>
      <trkpt lat="43.98258" lon="5.13501">
        <ele>316.054</ele>
        <time>2021-11-15T21:39:33Z</time>
      </trkpt>
      <trkpt lat="43.9825" lon="5.13522">
        <ele>317.039</ele>
        <time>2021-11-15T21:40:13Z</time>
      </trkpt>
      <trkpt lat="43.98229" lon="5.13562">
        <ele>318.063</ele>
        <time>2021-11-15T21:40:53Z</time>
      </trkpt>
      <trkpt lat="43.982" lon="5.13626">
        <ele>319.058</ele>
        <time>2021-11-15T21:41:33Z</time>
      </trkpt>
      <trkpt lat="43.98185" lon="5.13671">
        <ele>323.074</ele>
        <time>2021-11-15T21:42:13Z</time>
      </trkpt>
      <trkpt lat="43.98174" lon="5.13719">
        <ele>322.056</ele>
        <time>2021-11-15T21:42:53Z</time>
      </trkpt>
      <trkpt lat="43.98164" lon="5.13769">
        <ele>327.021</ele>
        <time>2021-11-15T21:43:33Z</time>
      </trkpt>
      <trkpt lat="43.98158" lon="5.13792">
        <ele>329.007</ele>
        <time>2021-11-15T21:44:13Z</time>
      </trkpt>
      <trkpt lat="43.98145" lon="5.13813">
        <ele>332.049</ele>
        <time>2021-11-15T21:44:53Z</time>
      </trkpt>
      <trkpt lat="43.98124" lon="5.13853">
        <ele>332.098</ele>
        <time>2021-11-15T21:45:33Z</time>
      </trkpt>
      <trkpt lat="43.98112" lon="5.13871">
        <ele>332.031</ele>
        <time>2021-11-15T21:46:13Z</time>
      </trkpt>
      <trkpt lat="43.98095" lon="5.13884">
        <ele>334.053</ele>
        <time>2021-11-15T21:46:53Z</time>
      </trkpt>
      <trkpt lat="43.98071" lon="5.13922">
        <ele>336.078</ele>
        <time>2021-11-15T21:47:33Z</time>
      </trkpt>
      <trkpt lat="43.98062" lon="5.13945">
        <ele>335.072</ele>
        <time>2021-11-15T21:48:13Z</time>
      </trkpt>
      <trkpt lat="43.98046" lon="5.13995">
        <ele>336.067</ele>
        <time>2021-11-15T21:48:53Z</time>
      </trkpt>
      <trkpt lat="43.98039" lon="5.14018">
        <ele>338.077</ele>
        <time>2021-11-15T21:49:33Z</time>
      </trkpt>
      <trkpt lat="43.98029" lon="5.14094">
        <ele>338.061</ele>
        <time>2021-11-15T21:50:13Z</time>
      </trkpt>
      <trkpt lat="43.97995" lon="5.14159">
        <ele>339.027</ele>
        <time>2021-11-15T21:50:53Z</time>
      </trkpt>
      <trkpt lat="43.97986" lon="5.14182">
        <ele>338.007</ele>
        <time>2021-11-15T21:51:33Z</time>
      </trkpt>
      <trkpt lat="43.9798" lon="5.14204">
        <ele>340.079</ele>
        <time>2021-11-15T21:52:13Z</time>
      </trkpt>
      <trkpt lat="43.97976" lon="5.14229">
        <ele>342.088</ele>
        <time>2021-11-15T21:52:53Z</time>
      </trkpt>
      <trkpt lat="43.9798" lon="5.14253">
        <ele>343.021</ele>
        <time>2021-11-15T21:53:33Z</time>
      </trkpt>
      <trkpt lat="43.97978" lon="5.14279">
        <ele>346.073</ele>
        <time>2021-11-15T21:54:13Z</time>
      </trkpt>
      <trkpt lat="43.97942" lon="5.14341">
        <ele>347.068</ele>
        <time>2021-11-15T21:54:53Z</time>
      </trkpt>
      <trkpt lat="43.97914" lon="5.14374">
        <ele>349.022</ele>
        <time>2021-11-15T21:55:33Z</time>
      </trkpt>
      <trkpt lat="43.979" lon="5.14394">
        <ele>352.087</ele>
        <time>2021-11-15T21:56:13Z</time>
      </trkpt>
      <trkpt lat="43.97883" lon="5.1441">
        <ele>354.078</ele>
        <time>2021-11-15T21:56:53Z</time>
      </trkpt>
      <trkpt lat="43.97829" lon="5.1445">
        <ele>352.033</ele>
        <time>2021-11-15T21:57:33Z</time>
      </trkpt>
      <trkpt lat="43.97796" lon="5.14476">
        <ele>357.026</ele>
        <time>2021-11-15T21:58:13Z</time>
      </trkpt>
      <trkpt lat="43.97764" lon="5.14503">
        <ele>361.007</ele>
        <time>2021-11-15T21:58:53Z</time>
      </trkpt>
      <trkpt lat="43.97715" lon="5.14537">
        <ele>367.079</ele>
        <time>2021-11-15T21:59:33Z</time>
      </trkpt>
      <trkpt lat="43.97689" lon="5.14572">
        <ele>366.058</ele>
        <time>2021-11-15T22:00:13Z</time>
      </trkpt>
      <trkpt lat="43.97675" lon="5.14588">
        <ele>368.011</ele>
        <time>2021-11-15T22:00:53Z</time>
      </trkpt>
      <trkpt lat="43.97659" lon="5.14598">
        <ele>368.073</ele>
        <time>2021-11-15T22:01:33Z</time>
      </trkpt>
      <trkpt lat="43.97652" lon="5.14617">
        <ele>369.018</ele>
        <time>2021-11-15T22:02:13Z</time>
      </trkpt>
      <trkpt lat="43.9764" lon="5.14636">
        <ele>371.082</ele>
        <time>2021-11-15T22:02:53Z</time>
      </trkpt>
      <trkpt lat="43.97617" lon="5.14677">
        <ele>377.017</ele>
        <time>2021-11-15T22:03:33Z</time>
      </trkpt>
      <trkpt lat="43.97609" lon="5.14725">
        <ele>388.093</ele>
        <time>2021-11-15T22:04:13Z</time>
      </trkpt>
      <trkpt lat="43.97601" lon="5.14749">
        <ele>391.065</ele>
        <time>2021-11-15T22:04:53Z</time>
      </trkpt>
      <trkpt lat="43.97561" lon="5.14799">
        <ele>396.021</ele>
        <time>2021-11-15T22:05:33Z</time>
      </trkpt>
      <trkpt lat="43.97535" lon="5.14838">
        <ele>403.007</ele>
        <time>2021-11-15T22:06:13Z</time>
      </trkpt>
      <trkpt lat="43.97518" lon="5.14882">
        <ele>409.031</ele>
        <time>2021-11-15T22:06:53Z</time>
      </trkpt>
      <trkpt lat="43.97508" lon="5.14902">
        <ele>412.04</ele>
        <time>2021-11-15T22:07:33Z</time>
      </trkpt>
      <trkpt lat="43.97501" lon="5.14924">
        <ele>413.083</ele>
        <time>2021-11-15T22:08:13Z</time>
      </trkpt>
      <trkpt lat="43.97503" lon="5.1495">
        <ele>416.055</ele>
        <time>2021-11-15T22:08:53Z</time>
      </trkpt>
      <trkpt lat="43.97492" lon="5.15025">
        <ele>423.05</ele>
        <time>2021-11-15T22:09:33Z</time>
      </trkpt>
      <trkpt lat="43.97485" lon="5.15049">
        <ele>425.044</ele>
        <time>2021-11-15T22:10:13Z</time>
      </trkpt>
      <trkpt lat="43.97475" lon="5.15074">
        <ele>424.069</ele>
        <time>2021-11-15T22:10:53Z</time>
      </trkpt>
      <trkpt lat="43.97426" lon="5.15151">
        <ele>431.077</ele>
        <time>2021-11-15T22:11:33Z</time>
      </trkpt>
      <trkpt lat="43.97414" lon="5.15171">
        <ele>433.061</ele>
        <time>2021-11-15T22:12:13Z</time>
      </trkpt>
      <trkpt lat="43.97404" lon="5.15194">
        <ele>435.027</ele>
        <time>2021-11-15T22:12:53Z</time>
      </trkpt>
      <trkpt lat="43.97372" lon="5.15209">
        <ele>436.007</ele>
        <time>2021-11-15T22:13:33Z</time>
      </trkpt>
      <trkpt lat="43.9735" lon="5.15209">
        <ele>440.069</ele>
        <time>2021-11-15T22:14:13Z</time>
      </trkpt>
      <trkpt lat="43.97338" lon="5.15201">
        <ele>436.098</ele>
        <time>2021-11-15T22:14:53Z</time>
      </trkpt>
      <trkpt lat="43.97339" lon="5.152">
        <ele>436.071</ele>
        <time>2021-11-15T22:15:33Z</time>
      </trkpt>
      <trkpt lat="43.9733" lon="5.15232">
        <ele>436.033</ele>
        <time>2021-11-15T22:16:13Z</time>
      </trkpt>
      <trkpt lat="43.97312" lon="5.15277">
        <ele>435.018</ele>
        <time>2021-11-15T22:16:53Z</time>
      </trkpt>
      <trkpt lat="43.97302" lon="5.15327">
        <ele>432.012</ele>
        <time>2021-11-15T22:17:33Z</time>
      </trkpt>
      <trkpt lat="43.97289" lon="5.15376">
        <ele>425.087</ele>
        <time>2021-11-15T22:18:13Z</time>
      </trkpt>
      <trkpt lat="43.97268" lon="5.15421">
        <ele>425.043</ele>
        <time>2021-11-15T22:18:53Z</time>
      </trkpt>
      <trkpt lat="43.9726" lon="5.15446">
        <ele>423.064</ele>
        <time>2021-11-15T22:19:33Z</time>
      </trkpt>
      <trkpt lat="43.97222" lon="5.15495">
        <ele>419.01</ele>
        <time>2021-11-15T22:20:13Z</time>
      </trkpt>
      <trkpt lat="43.97202" lon="5.1551">
        <ele>419.007</ele>
        <time>2021-11-15T22:20:53Z</time>
      </trkpt>
      <trkpt lat="43.97184" lon="5.15516">
        <ele>418.036</ele>
        <time>2021-11-15T22:21:33Z</time>
      </trkpt>
      <trkpt lat="43.97166" lon="5.15512">
        <ele>418.035</ele>
        <time>2021-11-15T22:22:13Z</time>
      </trkpt>
      <trkpt lat="43.97139" lon="5.15536">
        <ele>417.028</ele>
        <time>2021-11-15T22:22:53Z</time>
      </trkpt>
      <trkpt lat="43.97121" lon="5.15544">
        <ele>420.09</ele>
        <time>2021-11-15T22:23:33Z</time>
      </trkpt>
      <trkpt lat="43.97072" lon="5.15547">
        <ele>418.015</ele>
        <time>2021-11-15T22:24:13Z</time>
      </trkpt>
      <trkpt lat="43.97043" lon="5.15542">
        <ele>421.079</ele>
        <time>2021-11-15T22:24:53Z</time>
      </trkpt>
      <trkpt lat="43.97029" lon="5.15542">
        <ele>422.054</ele>
        <time>2021-11-15T22:25:33Z</time>
      </trkpt>
      <trkpt lat="43.97015" lon="5.15526">
        <ele>425.063</ele>
        <time>2021-11-15T22:26:13Z</time>
      </trkpt>
      <trkpt lat="43.97015" lon="5.15533">
        <ele>425.044</ele>
        <time>2021-11-15T22:26:53Z</time>
      </trkpt>
      <trkpt lat="43.97012" lon="5.15543">
        <ele>424.018</ele>
        <time>2021-11-15T22:27:33Z</time>
      </trkpt>
      <trkpt lat="43.97003" lon="5.15559">
        <ele>428.007</ele>
        <time>2021-11-15T22:28:13Z</time>
      </trkpt>
      <trkpt lat="43.97" lon="5.15572">
        <ele>426.088</ele>
        <time>2021-11-15T22:28:53Z</time>
      </trkpt>
      <trkpt lat="43.96979" lon="5.15586">
        <ele>426.027</ele>
        <time>2021-11-15T22:29:33Z</time>
      </trkpt>
      <trkpt lat="43.96959" lon="5.15578">
        <ele>423.04</ele>
        <time>2021-11-15T22:30:13Z</time>
      </trkpt>
      <trkpt lat="43.96929" lon="5.15542">
        <ele>436.062</ele>
        <time>2021-11-15T22:30:53Z</time>
      </trkpt>
      <trkpt lat="43.96917" lon="5.15523">
        <ele>437.057</ele>
        <time>2021-11-15T22:31:33Z</time>
      </trkpt>
      <trkpt lat="43.96915" lon="5.15494">
        <ele>442.051</ele>
        <time>2021-11-15T22:32:13Z</time>
      </trkpt>
      <trkpt lat="43.96898" lon="5.15448">
        <ele>453.076</ele>
        <time>2021-11-15T22:32:53Z</time>
      </trkpt>
      <trkpt lat="43.96857" lon="5.1539">
        <ele>454.043</ele>
        <time>2021-11-15T22:33:33Z</time>
      </trkpt>
      <trkpt lat="43.96825" lon="5.15369">
        <ele>453.064</ele>
        <time>2021-11-15T22:34:13Z</time>
      </trkpt>
      <trkpt lat="43.96815" lon="5.15347">
        <ele>449.01</ele>
        <time>2021-11-15T22:34:53Z</time>
      </trkpt>
      <trkpt lat="43.96808" lon="5.15318">
        <ele>443.007</ele>
        <time>2021-11-15T22:35:33Z</time>
      </trkpt>
      <trkpt lat="43.96778" lon="5.1524">
        <ele>434.066</ele>
        <time>2021-11-15T22:36:13Z</time>
      </trkpt>
      <trkpt lat="43.96771" lon="5.15181">
        <ele>427.035</ele>
        <time>2021-11-15T22:36:53Z</time>
      </trkpt>
      <trkpt lat="43.96764" lon="5.15155">
        <ele>424.058</ele>
        <time>2021-11-15T22:37:33Z</time>
      </trkpt>
      <trkpt lat="43.96742" lon="5.15106">
        <ele>429.06</ele>
        <time>2021-11-15T22:38:13Z</time>
      </trkpt>
      <trkpt lat="43.96736" lon="5.15079">
        <ele>431.015</ele>
        <time>2021-11-15T22:38:53Z</time>
      </trkpt>
      <trkpt lat="43.96718" lon="5.15028">
        <ele>445.029</ele>
        <time>2021-11-15T22:39:33Z</time>
      </trkpt>
      <trkpt lat="43.96704" lon="5.15004">
        <ele>450.044</ele>
        <time>2021-11-15T22:40:13Z</time>
      </trkpt>
      <trkpt lat="43.96706" lon="5.14973">
        <ele>447.046</ele>
        <time>2021-11-15T22:40:53Z</time>
      </trkpt>
      <trkpt lat="43.96713" lon="5.1495">
        <ele>447.088</ele>
        <time>2021-11-15T22:41:33Z</time>
      </trkpt>
      <trkpt lat="43.96714" lon="5.1494">
        <ele>450.016</ele>
        <time>2021-11-15T22:42:13Z</time>
      </trkpt>
      <trkpt lat="43.96728" lon="5.14934">
        <ele>449.007</ele>
        <time>2021-11-15T22:42:53Z</time>
      </trkpt>
      <trkpt lat="43.96773" lon="5.14985">
        <ele>432.066</ele>
        <time>2021-11-15T22:43:33Z</time>
      </trkpt>
      <trkpt lat="43.96793" lon="5.14996">
        <ele>427.065</ele>
        <time>2021-11-15T22:44:13Z</time>
      </trkpt>
      <trkpt lat="43.96808" lon="5.1502">
        <ele>426.058</ele>
        <time>2021-11-15T22:44:53Z</time>
      </trkpt>
      <trkpt lat="43.96825" lon="5.15034">
        <ele>426.07</ele>
        <time>2021-11-15T22:45:33Z</time>
      </trkpt>
      <trkpt lat="43.96843" lon="5.15041">
        <ele>424.055</ele>
        <time>2021-11-15T22:46:13Z</time>
      </trkpt>
      <trkpt lat="43.96896" lon="5.15046">
        <ele>419.049</ele>
        <time>2021-11-15T22:46:53Z</time>
      </trkpt>
      <trkpt lat="43.96919" lon="5.15046">
        <ele>420.074</ele>
        <time>2021-11-15T22:47:33Z</time>
      </trkpt>
      <trkpt lat="43.96937" lon="5.15033">
        <ele>419.036</ele>
        <time>2021-11-15T22:48:13Z</time>
      </trkpt>
      <trkpt lat="43.96957" lon="5.1503">
        <ele>417.017</ele>
        <time>2021-11-15T22:48:53Z</time>
      </trkpt>
      <trkpt lat="43.96981" lon="5.15034">
        <ele>417.018</ele>
        <time>2021-11-15T22:49:33Z</time>
      </trkpt>
      <trkpt lat="43.97001" lon="5.15044">
        <ele>412.007</ele>
        <time>2021-11-15T22:50:13Z</time>
      </trkpt>
      <trkpt lat="43.97022" lon="5.15042">
        <ele>407.025</ele>
        <time>2021-11-15T22:50:53Z</time>
      </trkpt>
      <trkpt lat="43.97043" lon="5.15032">
        <ele>405.024</ele>
        <time>2021-11-15T22:51:33Z</time>
      </trkpt>
      <trkpt lat="43.97106" lon="5.15029">
        <ele>394.077</ele>
        <time>2021-11-15T22:52:13Z</time>
      </trkpt>
      <trkpt lat="43.97124" lon="5.15023">
        <ele>389.019</ele>
        <time>2021-11-15T22:52:53Z</time>
      </trkpt>
      <trkpt lat="43.97146" lon="5.15003">
        <ele>383.054</ele>
        <time>2021-11-15T22:53:33Z</time>
      </trkpt>
      <trkpt lat="43.97155" lon="5.14979">
        <ele>380.048</ele>
        <time>2021-11-15T22:54:13Z</time>
      </trkpt>
      <trkpt lat="43.97168" lon="5.14968">
        <ele>379.043</ele>
        <time>2021-11-15T22:54:53Z</time>
      </trkpt>
      <trkpt lat="43.97179" lon="5.14944">
        <ele>380.036</ele>
        <time>2021-11-15T22:55:33Z</time>
      </trkpt>
      <trkpt lat="43.97175" lon="5.14916">
        <ele>383.017</ele>
        <time>2021-11-15T22:56:13Z</time>
      </trkpt>
      <trkpt lat="43.97174" lon="5.14841">
        <ele>390.018</ele>
        <time>2021-11-15T22:56:53Z</time>
      </trkpt>
      <trkpt lat="43.97171" lon="5.14814">
        <ele>389.007</ele>
        <time>2021-11-15T22:57:33Z</time>
      </trkpt>
      <trkpt lat="43.97173" lon="5.14785">
        <ele>389.095</ele>
        <time>2021-11-15T22:58:13Z</time>
      </trkpt>
      <trkpt lat="43.9718" lon="5.14759">
        <ele>389.044</ele>
        <time>2021-11-15T22:58:53Z</time>
      </trkpt>
      <trkpt lat="43.97182" lon="5.14728">
        <ele>390.017</ele>
        <time>2021-11-15T22:59:33Z</time>
      </trkpt>
      <trkpt lat="43.97197" lon="5.14703">
        <ele>392.069</ele>
        <time>2021-11-15T23:00:13Z</time>
      </trkpt>
      <trkpt lat="43.97203" lon="5.14674">
        <ele>399.084</ele>
        <time>2021-11-15T23:00:53Z</time>
      </trkpt>
      <trkpt lat="43.97203" lon="5.1465">
        <ele>404.058</ele>
        <time>2021-11-15T23:01:33Z</time>
      </trkpt>
      <trkpt lat="43.97183" lon="5.14647">
        <ele>405.083</ele>
        <time>2021-11-15T23:02:13Z</time>
      </trkpt>
      <trkpt lat="43.97167" lon="5.14651">
        <ele>402.028</ele>
        <time>2021-11-15T23:02:53Z</time>
      </trkpt>
      <trkpt lat="43.97132" lon="5.14652">
        <ele>407.089</ele>
        <time>2021-11-15T23:03:33Z</time>
      </trkpt>
      <trkpt lat="43.97113" lon="5.14648">
        <ele>413.017</ele>
        <time>2021-11-15T23:04:13Z</time>
      </trkpt>
      <trkpt lat="43.97096" lon="5.14653">
        <ele>414.007</ele>
        <time>2021-11-15T23:04:53Z</time>
      </trkpt>
      <trkpt lat="43.97078" lon="5.14647">
        <ele>415.024</ele>
        <time>2021-11-15T23:05:33Z</time>
      </trkpt>
      <trkpt lat="43.9706" lon="5.14649">
        <ele>414.063</ele>
        <time>2021-11-15T23:06:13Z</time>
      </trkpt>
      <trkpt lat="43.9705" lon="5.14646">
        <ele>414.056</ele>
        <time>2021-11-15T23:06:53Z</time>
      </trkpt>
      <trkpt lat="43.97039" lon="5.14633">
        <ele>417.068</ele>
        <time>2021-11-15T23:07:33Z</time>
      </trkpt>
      <trkpt lat="43.97026" lon="5.14596">
        <ele>415.083</ele>
        <time>2021-11-15T23:08:13Z</time>
      </trkpt>
      <trkpt lat="43.97018" lon="5.14591">
        <ele>417.027</ele>
        <time>2021-11-15T23:08:53Z</time>
      </trkpt>
      <trkpt lat="43.9702" lon="5.14593">
        <ele>411.052</ele>
        <time>2021-11-15T23:09:33Z</time>
      </trkpt>
      <trkpt lat="43.9703" lon="5.14542">
        <ele>413.072</ele>
        <time>2021-11-15T23:10:13Z</time>
      </trkpt>
      <trkpt lat="43.97041" lon="5.14521">
        <ele>409.013</ele>
        <time>2021-11-15T23:10:53Z</time>
      </trkpt>
      <trkpt lat="43.97051" lon="5.14496">
        <ele>410.014</ele>
        <time>2021-11-15T23:11:33Z</time>
      </trkpt>
      <trkpt lat="43.97058" lon="5.14469">
        <ele>410.007</ele>
        <time>2021-11-15T23:12:13Z</time>
      </trkpt>
      <trkpt lat="43.97058" lon="5.14477">
        <ele>413.079</ele>
        <time>2021-11-15T23:12:53Z</time>
      </trkpt>
      <trkpt lat="43.97046" lon="5.1445">
        <ele>415.028</ele>
        <time>2021-11-15T23:13:33Z</time>
      </trkpt>
      <trkpt lat="43.97034" lon="5.14435">
        <ele>415.041</ele>
        <time>2021-11-15T23:14:13Z</time>
      </trkpt>
      <trkpt lat="43.97017" lon="5.14424">
        <ele>416.043</ele>
        <time>2021-11-15T23:14:53Z</time>
      </trkpt>
      <trkpt lat="43.96998" lon="5.14419">
        <ele>417.038</ele>
        <time>2021-11-15T23:15:33Z</time>
      </trkpt>
      <trkpt lat="43.96985" lon="5.14438">
        <ele>418.092</ele>
        <time>2021-11-15T23:16:13Z</time>
      </trkpt>
      <trkpt lat="43.96971" lon="5.14443">
        <ele>419.017</ele>
        <time>2021-11-15T23:16:53Z</time>
      </trkpt>
      <trkpt lat="43.9696" lon="5.14407">
        <ele>413.042</ele>
        <time>2021-11-15T23:17:33Z</time>
      </trkpt>
      <trkpt lat="43.96911" lon="5.14331">
        <ele>415.022</ele>
        <time>2021-11-15T23:18:13Z</time>
      </trkpt>
      <trkpt lat="43.96878" lon="5.14292">
        <ele>415.014</ele>
        <time>2021-11-15T23:18:53Z</time>
      </trkpt>
      <trkpt lat="43.9682" lon="5.14148">
        <ele>420.007</ele>
        <time>2021-11-15T23:19:33Z</time>
      </trkpt>
      <trkpt lat="43.96808" lon="5.14127">
        <ele>419.096</ele>
        <time>2021-11-15T23:20:13Z</time>
      </trkpt>
      <trkpt lat="43.96798" lon="5.14104">
        <ele>419.045</ele>
        <time>2021-11-15T23:20:53Z</time>
      </trkpt>
      <trkpt lat="43.96793" lon="5.14078">
        <ele>418.028</ele>
        <time>2021-11-15T23:21:33Z</time>
      </trkpt>
      <trkpt lat="43.96798" lon="5.14051">
        <ele>417.01</ele>
        <time>2021-11-15T23:22:13Z</time>
      </trkpt>
      <trkpt lat="43.96806" lon="5.14025">
        <ele>418.025</ele>
        <time>2021-11-15T23:22:53Z</time>
      </trkpt>
      <trkpt lat="43.96815" lon="5.14005">
        <ele>422.089</ele>
        <time>2021-11-15T23:23:33Z</time>
      </trkpt>
      <trkpt lat="43.96827" lon="5.13985">
        <ele>422.064</ele>
        <time>2021-11-15T23:24:13Z</time>
      </trkpt>
      <trkpt lat="43.96841" lon="5.13968">
        <ele>423.067</ele>
        <time>2021-11-15T23:24:53Z</time>
      </trkpt>
      <trkpt lat="43.96834" lon="5.13949">
        <ele>419.081</ele>
        <time>2021-11-15T23:25:33Z</time>
      </trkpt>
      <trkpt lat="43.9682" lon="5.13939">
        <ele>417.019</ele>
        <time>2021-11-15T23:26:13Z</time>
      </trkpt>
      <trkpt lat="43.96811" lon="5.13926">
        <ele>413.007</ele>
        <time>2021-11-15T23:26:53Z</time>
      </trkpt>
      <trkpt lat="43.96777" lon="5.13916">
        <ele>406.088</ele>
        <time>2021-11-15T23:27:33Z</time>
      </trkpt>
      <trkpt lat="43.96758" lon="5.13916">
        <ele>403.077</ele>
        <time>2021-11-15T23:28:13Z</time>
      </trkpt>
      <trkpt lat="43.96739" lon="5.13932">
        <ele>400.03</ele>
        <time>2021-11-15T23:28:53Z</time>
      </trkpt>
      <trkpt lat="43.96716" lon="5.13943">
        <ele>393.012</ele>
        <time>2021-11-15T23:29:33Z</time>
      </trkpt>
      <trkpt lat="43.96698" lon="5.13945">
        <ele>392.017</ele>
        <time>2021-11-15T23:30:13Z</time>
      </trkpt>
      <trkpt lat="43.9668" lon="5.1394">
        <ele>400.061</ele>
        <time>2021-11-15T23:30:53Z</time>
      </trkpt>
      <trkpt lat="43.96656" lon="5.13947">
        <ele>405.056</ele>
        <time>2021-11-15T23:31:33Z</time>
      </trkpt>
      <trkpt lat="43.96636" lon="5.13941">
        <ele>409.079</ele>
        <time>2021-11-15T23:32:13Z</time>
      </trkpt>
      <trkpt lat="43.96605" lon="5.13949">
        <ele>407.005</ele>
        <time>2021-11-15T23:32:53Z</time>
      </trkpt>
      <trkpt lat="43.96563" lon="5.14028">
        <ele>384.025</ele>
        <time>2021-11-15T23:33:33Z</time>
      </trkpt>
      <trkpt lat="43.96534" lon="5.14079">
        <ele>371.007</ele>
        <time>2021-11-15T23:34:13Z</time>
      </trkpt>
      <trkpt lat="43.96526" lon="5.14105">
        <ele>374.039</ele>
        <time>2021-11-15T23:34:53Z</time>
      </trkpt>
      <trkpt lat="43.96506" lon="5.1413">
        <ele>378.018</ele>
        <time>2021-11-15T23:35:33Z</time>
      </trkpt>
      <trkpt lat="43.96464" lon="5.14154">
        <ele>376.011</ele>
        <time>2021-11-15T23:36:13Z</time>
      </trkpt>
      <trkpt lat="43.96456" lon="5.14141">
        <ele>376.053</ele>
        <time>2021-11-15T23:36:53Z</time>
      </trkpt>
      <trkpt lat="43.96487" lon="5.14104">
        <ele>373.058</ele>
        <time>2021-11-15T23:37:33Z</time>
      </trkpt>
      <trkpt lat="43.96494" lon="5.14087">
        <ele>372.072</ele>
        <time>2021-11-15T23:38:13Z</time>
      </trkpt>
      <trkpt lat="43.96504" lon="5.14038">
        <ele>379.087</ele>
        <time>2021-11-15T23:38:53Z</time>
      </trkpt>
      <trkpt lat="43.96513" lon="5.13984">
        <ele>376.047</ele>
        <time>2021-11-15T23:39:33Z</time>
      </trkpt>
      <trkpt lat="43.9652" lon="5.13957">
        <ele>365.029</ele>
        <time>2021-11-15T23:40:13Z</time>
      </trkpt>
      <trkpt lat="43.96518" lon="5.13932">
        <ele>367.021</ele>
        <time>2021-11-15T23:40:53Z</time>
      </trkpt>
      <trkpt lat="43.96532" lon="5.13912">
        <ele>365.007</ele>
        <time>2021-11-15T23:41:33Z</time>
      </trkpt>
      <trkpt lat="43.96544" lon="5.13889">
        <ele>360.056</ele>
        <time>2021-11-15T23:42:13Z</time>
      </trkpt>
    </trkseg>
  </trk>
</gpx>